Time;durP1;ratioP1;P1;durP2;ratioP2;P2;SDS_P1;SDS_P2;PMS_P1;PMS_P2;Temp;Humidity;BMP_temperature;BMP_pressure;BME280_temperature;BME280_humidity;BME280_pressure;Samples;Min_cycle;Max_cycle;Signal;HPM_P1;HPM_P2
2021/08/14 00:00:24;;;;;;;8.00;4.35;;;21.50;99.90;;;;;;5036016;28;20044;-84
2021/08/14 00:02:50;;;;;;;8.95;4.53;;;21.50;99.90;;;;;;5036302;28;20032;-85
2021/08/14 00:05:16;;;;;;;8.05;4.93;;;21.50;99.90;;;;;;5020186;28;20022;-85
2021/08/14 00:07:41;;;;;;;8.07;5.05;;;21.50;99.90;;;;;;5034796;28;20025;-83
2021/08/14 00:10:08;;;;;;;10.18;4.65;;;21.50;99.90;;;;;;5036418;28;20022;-84
2021/08/14 00:12:33;;;;;;;7.65;4.60;;;21.40;99.90;;;;;;5032738;28;20030;-84
2021/08/14 00:14:59;;;;;;;7.82;4.60;;;21.40;99.90;;;;;;5035933;28;20335;-85
2021/08/14 00:17:24;;;;;;;8.85;4.47;;;21.40;99.90;;;;;;5036333;28;20037;-85
2021/08/14 00:19:50;;;;;;;8.35;4.35;;;21.30;99.90;;;;;;5033385;28;20021;-84
2021/08/14 00:22:16;;;;;;;8.43;4.47;;;21.30;99.90;;;;;;5028880;28;20022;-83
2021/08/14 00:24:41;;;;;;;8.02;5.03;;;21.20;99.90;;;;;;5035653;28;20026;-84
2021/08/14 00:27:07;;;;;;;10.82;5.22;;;21.20;99.90;;;;;;5035282;28;20033;-85
2021/08/14 00:29:33;;;;;;;8.38;4.40;;;21.20;99.90;;;;;;5025673;28;20055;-85
2021/08/14 00:31:59;;;;;;;8.80;5.20;;;21.10;99.90;;;;;;5033932;28;20104;-84
2021/08/14 00:34:24;;;;;;;11.00;4.72;;;21.10;99.90;;;;;;5035468;28;20447;-83
2021/08/14 00:36:50;;;;;;;8.27;4.93;;;21.10;99.90;;;;;;5035299;28;21054;-85
2021/08/14 00:39:15;;;;;;;8.27;4.65;;;21.10;99.90;;;;;;5033776;28;20030;-85
2021/08/14 00:41:41;;;;;;;8.27;4.72;;;21.00;99.90;;;;;;5035558;28;20033;-85
2021/08/14 00:44:07;;;;;;;8.75;5.20;;;21.10;99.90;;;;;;5034849;28;20410;-84
2021/08/14 00:46:33;;;;;;;9.07;4.75;;;21.00;99.90;;;;;;5032993;28;20017;-84
2021/08/14 00:49:00;;;;;;;9.02;4.88;;;21.00;99.90;;;;;;5021189;28;20018;-82
2021/08/14 00:51:26;;;;;;;8.75;5.28;;;21.00;99.90;;;;;;5034860;28;20054;-85
2021/08/14 00:53:52;;;;;;;9.23;5.18;;;21.00;99.90;;;;;;5034882;28;20026;-85
2021/08/14 00:56:24;;;;;;;8.70;5.05;;;21.00;99.90;;;;;;5030659;28;20197;-85
2021/08/14 00:58:51;;;;;;;8.52;5.40;;;21.00;99.90;;;;;;5034536;28;20033;-85
2021/08/14 01:01:18;;;;;;;8.65;5.38;;;21.00;99.90;;;;;;5033815;28;20494;-84
2021/08/14 01:03:44;;;;;;;8.75;4.88;;;21.00;99.90;;;;;;5032498;28;20017;-85
2021/08/14 01:06:15;;;;;;;7.80;4.85;;;21.00;99.90;;;;;;5028557;28;20058;-85
2021/08/14 01:08:41;;;;;;;8.82;4.72;;;20.90;99.90;;;;;;5028570;28;20018;-82
2021/08/14 01:11:08;;;;;;;7.40;4.97;;;20.90;99.90;;;;;;5037935;23;20096;-84
2021/08/14 01:13:34;;;;;;;8.05;4.78;;;20.80;99.90;;;;;;5015136;28;20021;-84
2021/08/14 01:16:00;;;;;;;7.22;4.68;;;20.90;99.90;;;;;;5028615;28;20032;-86
2021/08/14 01:18:25;;;;;;;8.82;4.63;;;20.80;99.90;;;;;;5010977;28;20032;-86
2021/08/14 01:20:51;;;;;;;8.48;4.47;;;20.80;99.90;;;;;;5008565;28;20036;-86
2021/08/14 01:23:17;;;;;;;8.02;4.63;;;20.80;99.90;;;;;;4995721;28;20034;-86
2021/08/14 01:25:44;;;;;;;7.85;4.88;;;20.80;99.90;;;;;;5010719;28;20053;-86
2021/08/14 01:28:10;;;;;;;7.53;4.82;;;20.80;99.90;;;;;;5000386;28;20026;-86
2021/08/14 01:30:37;;;;;;;9.27;4.88;;;20.70;99.90;;;;;;5004019;28;20034;-86
2021/08/14 01:33:03;;;;;;;10.95;4.55;;;20.80;99.90;;;;;;5021765;28;20041;-86
2021/08/14 01:35:28;;;;;;;9.70;4.88;;;20.70;99.90;;;;;;5003372;28;20029;-86
2021/08/14 01:37:54;;;;;;;9.45;5.50;;;20.70;99.90;;;;;;5020703;28;20121;-87
2021/08/14 01:40:20;;;;;;;7.20;4.97;;;20.70;99.90;;;;;;5012397;28;20034;-86
2021/08/14 01:42:45;;;;;;;9.85;5.55;;;20.70;99.90;;;;;;5002596;28;20096;-86
2021/08/14 01:45:11;;;;;;;9.90;4.95;;;20.60;99.90;;;;;;5008193;28;20427;-84
2021/08/14 01:47:36;;;;;;;7.00;4.80;;;20.60;99.90;;;;;;5017494;28;20079;-84
2021/08/14 01:50:03;;;;;;;8.23;5.60;;;20.60;99.90;;;;;;5028354;28;20025;-84
2021/08/14 01:52:28;;;;;;;8.02;4.72;;;20.50;99.90;;;;;;4993791;28;20061;-84
2021/08/14 01:54:54;;;;;;;7.28;4.43;;;20.50;99.90;;;;;;5020949;28;20026;-84
2021/08/14 01:57:20;;;;;;;8.95;4.85;;;20.50;99.90;;;;;;5018789;28;20058;-86
2021/08/14 01:59:46;;;;;;;7.32;4.82;;;20.50;99.90;;;;;;5002072;28;20058;-86
2021/08/14 02:02:12;;;;;;;7.97;5.10;;;20.40;99.90;;;;;;4996335;28;20026;-86
2021/08/14 02:04:38;;;;;;;10.68;5.03;;;20.40;99.90;;;;;;5010990;28;20448;-86
2021/08/14 02:07:04;;;;;;;7.30;5.10;;;20.30;99.90;;;;;;5007632;28;20105;-86
2021/08/14 02:09:29;;;;;;;9.45;5.55;;;20.30;99.90;;;;;;4999694;28;20065;-86
2021/08/14 02:11:55;;;;;;;12.10;5.60;;;20.30;99.90;;;;;;4998980;28;20026;-86
2021/08/14 02:14:21;;;;;;;8.88;4.97;;;20.20;99.90;;;;;;5010375;28;20030;-86
2021/08/14 02:16:46;;;;;;;7.90;5.03;;;20.20;99.90;;;;;;5012700;28;20124;-86
2021/08/14 02:19:12;;;;;;;7.70;4.93;;;20.20;99.90;;;;;;4999949;28;20033;-86
2021/08/14 02:21:38;;;;;;;7.45;4.93;;;20.20;99.90;;;;;;4993443;28;20030;-86
2021/08/14 02:24:04;;;;;;;7.25;4.95;;;20.20;99.90;;;;;;4989810;28;20029;-86
2021/08/14 02:26:30;;;;;;;10.02;4.90;;;20.10;99.90;;;;;;4995225;28;20029;-86
2021/08/14 02:28:56;;;;;;;10.55;5.10;;;20.10;99.90;;;;;;5013174;28;20014;-86
2021/08/14 02:31:21;;;;;;;7.97;5.00;;;20.10;99.90;;;;;;4993872;28;20448;-86
2021/08/14 02:33:47;;;;;;;9.93;4.90;;;20.10;99.90;;;;;;5013924;28;20093;-86
2021/08/14 02:36:14;;;;;;;10.18;5.15;;;20.10;99.90;;;;;;5004528;28;20021;-86
2021/08/14 02:38:40;;;;;;;8.00;5.00;;;20.10;99.90;;;;;;5014932;28;20034;-86
2021/08/14 02:41:07;;;;;;;10.35;5.38;;;20.00;99.90;;;;;;4998389;28;20134;-86
2021/08/14 02:43:33;;;;;;;8.32;5.20;;;20.00;99.90;;;;;;4999455;28;20029;-86
2021/08/14 02:46:01;;;;;;;11.38;5.22;;;19.90;99.90;;;;;;5016156;28;20022;-87
2021/08/14 02:48:28;;;;;;;10.77;5.05;;;19.90;99.90;;;;;;5014513;28;20093;-86
2021/08/14 02:50:54;;;;;;;8.32;5.10;;;19.90;99.90;;;;;;5005286;28;20116;-86
2021/08/14 02:53:20;;;;;;;9.93;5.35;;;19.90;99.90;;;;;;5015506;28;20521;-86
2021/08/14 02:55:46;;;;;;;8.25;5.28;;;19.80;99.90;;;;;;5015158;28;20026;-86
2021/08/14 02:58:11;;;;;;;7.70;4.78;;;19.80;99.90;;;;;;5003526;28;20030;-86
2021/08/14 03:00:37;;;;;;;9.20;5.13;;;19.80;99.90;;;;;;5003358;28;20125;-86
2021/08/14 03:03:03;;;;;;;7.70;4.97;;;19.80;99.90;;;;;;5015886;28;20469;-86
2021/08/14 03:05:29;;;;;;;10.77;4.95;;;19.80;99.90;;;;;;4995805;28;20053;-87
2021/08/14 03:07:55;;;;;;;9.95;5.28;;;19.80;99.90;;;;;;5013916;28;20026;-85
2021/08/14 03:10:20;;;;;;;6.35;4.45;;;19.70;99.90;;;;;;5013672;28;20030;-86
2021/08/14 03:12:46;;;;;;;8.75;4.93;;;19.70;99.90;;;;;;5008588;28;20444;-87
2021/08/14 03:15:12;;;;;;;9.90;5.00;;;19.70;99.90;;;;;;4978226;28;20026;-86
2021/08/14 03:17:37;;;;;;;9.15;5.50;;;19.70;99.90;;;;;;5013333;28;20037;-86
2021/08/14 03:20:05;;;;;;;8.48;4.88;;;19.70;99.90;;;;;;4997948;28;20398;-86
2021/08/14 03:22:30;;;;;;;9.10;5.30;;;19.60;99.90;;;;;;4994389;28;20030;-86
2021/08/14 03:24:56;;;;;;;9.40;4.93;;;19.50;99.90;;;;;;5018137;28;20022;-84
2021/08/14 03:27:22;;;;;;;7.88;4.70;;;19.50;99.90;;;;;;5018990;28;20548;-84
2021/08/14 03:29:47;;;;;;;8.57;4.90;;;19.40;99.90;;;;;;5005671;28;20467;-86
2021/08/14 03:32:13;;;;;;;8.15;5.35;;;19.40;99.90;;;;;;4987748;28;20037;-87
2021/08/14 03:34:38;;;;;;;10.60;5.60;;;19.40;99.90;;;;;;4986418;28;20049;-86
2021/08/14 03:37:04;;;;;;;6.72;4.85;;;19.50;99.90;;;;;;5017014;28;20037;-86
2021/08/14 03:39:30;;;;;;;7.40;4.68;;;19.40;99.90;;;;;;5000195;28;20022;-86
2021/08/14 03:41:55;;;;;;;10.07;5.05;;;19.40;99.90;;;;;;5015354;28;20478;-88
2021/08/14 03:44:21;;;;;;;9.40;4.80;;;19.40;99.90;;;;;;5014188;28;20030;-86
2021/08/14 03:46:46;;;;;;;8.38;5.40;;;19.40;99.90;;;;;;5013686;28;20032;-86
2021/08/14 03:49:12;;;;;;;9.40;5.18;;;19.30;99.90;;;;;;5007584;28;20117;-84
2021/08/14 03:51:37;;;;;;;7.85;5.30;;;19.30;99.90;;;;;;4977605;28;20110;-84
2021/08/14 03:54:03;;;;;;;8.05;4.72;;;19.20;99.90;;;;;;5005087;28;20034;-84
2021/08/14 03:56:29;;;;;;;9.63;4.93;;;19.20;99.90;;;;;;5012732;28;20056;-84
2021/08/14 03:58:54;;;;;;;7.22;4.40;;;19.20;99.90;;;;;;5007257;28;20037;-84
2021/08/14 04:01:20;;;;;;;11.05;5.20;;;19.20;99.90;;;;;;4999426;28;20036;-84
2021/08/14 04:03:45;;;;;;;9.02;5.35;;;19.20;99.90;;;;;;5015011;28;20108;-84
2021/08/14 04:06:11;;;;;;;9.25;5.28;;;19.20;99.90;;;;;;4995647;28;20026;-84
2021/08/14 04:08:37;;;;;;;9.50;5.30;;;19.20;99.90;;;;;;5010564;28;20493;-86
2021/08/14 04:11:06;;;;;;;8.45;5.40;;;19.20;99.90;;;;;;4995545;28;20041;-86
2021/08/14 04:13:32;;;;;;;8.75;5.15;;;19.10;99.90;;;;;;5012893;28;20029;-86
2021/08/14 04:15:57;;;;;;;9.48;5.68;;;19.10;99.90;;;;;;5003151;28;20031;-86
2021/08/14 04:18:23;;;;;;;10.50;5.88;;;19.10;99.90;;;;;;4993230;28;20121;-86
2021/08/14 04:20:48;;;;;;;10.70;5.90;;;19.10;99.90;;;;;;4996566;28;20049;-86
2021/08/14 04:23:14;;;;;;;10.55;6.28;;;19.10;99.90;;;;;;4997036;28;20105;-86
2021/08/14 04:25:40;;;;;;;11.07;5.57;;;19.10;99.90;;;;;;4994846;28;20021;-86
2021/08/14 04:28:05;;;;;;;10.00;5.47;;;19.00;99.90;;;;;;4995317;28;20026;-86
2021/08/14 04:30:31;;;;;;;11.73;5.65;;;19.10;99.90;;;;;;5011942;28;20053;-86
2021/08/14 04:32:56;;;;;;;10.07;6.35;;;19.10;99.90;;;;;;5012272;28;20025;-86
2021/08/14 04:35:22;;;;;;;11.48;5.68;;;19.10;99.90;;;;;;5003761;28;20117;-86
2021/08/14 04:37:47;;;;;;;11.75;5.95;;;19.10;99.90;;;;;;5007316;28;20022;-86
2021/08/14 04:40:15;;;;;;;9.20;5.55;;;19.10;99.90;;;;;;5011350;28;20026;-86
2021/08/14 04:42:41;;;;;;;9.80;5.78;;;19.10;99.90;;;;;;5007389;28;20101;-86
2021/08/14 04:45:11;;;;;;;10.40;5.85;;;19.10;99.90;;;;;;5011242;28;20113;-86
2021/08/14 04:47:37;;;;;;;8.40;5.65;;;19.20;99.90;;;;;;5009724;28;20029;-86
2021/08/14 04:50:04;;;;;;;9.68;5.43;;;19.20;99.90;;;;;;5010674;28;20022;-86
2021/08/14 04:52:31;;;;;;;7.45;5.30;;;19.20;99.90;;;;;;4999747;28;20062;-87
2021/08/14 04:54:57;;;;;;;9.63;5.55;;;19.30;99.90;;;;;;4994995;28;20026;-86
2021/08/14 04:57:23;;;;;;;10.00;5.93;;;19.30;99.90;;;;;;5011064;28;20030;-86
2021/08/14 04:59:49;;;;;;;8.90;5.20;;;19.30;99.90;;;;;;5009983;28;20056;-86
2021/08/14 05:02:14;;;;;;;10.90;5.15;;;19.30;99.90;;;;;;5012046;28;20401;-86
2021/08/14 05:04:40;;;;;;;11.52;5.40;;;19.30;99.90;;;;;;5022778;28;20026;-86
2021/08/14 05:07:05;;;;;;;8.48;5.47;;;19.40;99.90;;;;;;5018903;28;20054;-86
2021/08/14 05:09:38;;;;;;;12.15;6.15;;;19.40;99.90;;;;;;5005725;28;20032;-86
2021/08/14 05:12:05;;;;;;;10.88;5.47;;;19.40;99.90;;;;;;4975699;28;20046;-86
2021/08/14 05:14:30;;;;;;;8.77;5.90;;;19.60;99.90;;;;;;5010455;28;20101;-86
2021/08/14 05:16:56;;;;;;;8.57;5.10;;;19.60;99.90;;;;;;5006816;28;20121;-86
2021/08/14 05:19:21;;;;;;;8.20;5.40;;;19.70;99.90;;;;;;4996934;28;20407;-86
2021/08/14 05:21:47;;;;;;;8.07;5.30;;;19.80;99.90;;;;;;4999645;28;20026;-87
2021/08/14 05:24:13;;;;;;;8.25;5.13;;;19.80;99.90;;;;;;4974660;28;20040;-86
2021/08/14 05:26:40;;;;;;;11.48;5.95;;;20.00;99.90;;;;;;5000792;28;20018;-87
2021/08/14 05:29:06;;;;;;;9.15;5.05;;;20.00;99.90;;;;;;4990535;28;20033;-86
2021/08/14 05:31:31;;;;;;;10.02;5.47;;;20.00;99.90;;;;;;4990940;28;20022;-86
2021/08/14 05:34:02;;;;;;;13.50;6.07;;;20.10;99.90;;;;;;5010180;28;20045;-86
2021/08/14 05:36:28;;;;;;;9.63;5.20;;;20.10;99.90;;;;;;5004040;28;20026;-86
2021/08/14 05:38:54;;;;;;;9.85;5.25;;;20.20;99.90;;;;;;5009504;28;20069;-86
2021/08/14 05:41:20;;;;;;;8.48;5.72;;;20.30;99.90;;;;;;4995706;28;20077;-86
2021/08/14 05:43:45;;;;;;;9.98;5.93;;;20.30;99.90;;;;;;5010135;28;20390;-86
2021/08/14 05:46:11;;;;;;;9.55;5.57;;;20.40;99.90;;;;;;5006017;28;20084;-87
2021/08/14 05:48:37;;;;;;;7.57;5.47;;;20.50;99.90;;;;;;5008529;28;20116;-87
2021/08/14 05:51:03;;;;;;;12.05;6.28;;;20.50;99.90;;;;;;5000213;28;20030;-87
2021/08/14 05:53:29;;;;;;;9.80;5.82;;;20.60;99.90;;;;;;5010322;28;20030;-87
2021/08/14 05:55:54;;;;;;;11.60;6.68;;;20.70;99.90;;;;;;5002944;28;20026;-86
2021/08/14 05:58:20;;;;;;;9.80;5.57;;;20.80;99.90;;;;;;5008350;28;20124;-87
2021/08/14 06:00:46;;;;;;;9.27;5.72;;;20.90;99.90;;;;;;5010020;28;20398;-87
2021/08/14 06:03:11;;;;;;;11.82;6.40;;;20.90;99.90;;;;;;5000985;28;20030;-87
2021/08/14 06:05:37;;;;;;;11.88;5.45;;;20.90;99.90;;;;;;4995166;28;20462;-87
2021/08/14 06:08:03;;;;;;;10.23;5.82;;;20.90;99.90;;;;;;5002355;28;20453;-86
2021/08/14 06:10:28;;;;;;;9.80;5.28;;;21.00;99.90;;;;;;4998741;28;20026;-86
2021/08/14 06:12:54;;;;;;;8.77;5.88;;;21.10;99.90;;;;;;5023017;28;20033;-86
2021/08/14 06:15:20;;;;;;;10.55;5.30;;;21.20;99.90;;;;;;5022719;28;20494;-87
2021/08/14 06:17:45;;;;;;;12.05;5.57;;;21.30;99.90;;;;;;5013323;28;20402;-87
2021/08/14 06:20:12;;;;;;;10.85;5.75;;;21.40;99.90;;;;;;4999866;28;20520;-86
2021/08/14 06:22:42;;;;;;;9.00;5.93;;;21.40;99.90;;;;;;5010757;28;20033;-87
2021/08/14 06:25:08;;;;;;;10.18;5.95;;;21.40;99.90;;;;;;4997006;28;20113;-87
2021/08/14 06:27:35;;;;;;;10.32;6.15;;;21.40;99.90;;;;;;5008907;28;20065;-87
2021/08/14 06:30:01;;;;;;;8.30;5.90;;;21.50;99.90;;;;;;5010206;28;20029;-86
2021/08/14 06:32:27;;;;;;;11.38;5.95;;;21.60;99.90;;;;;;5001353;28;20034;-87
2021/08/14 06:34:52;;;;;;;9.55;5.43;;;21.70;99.90;;;;;;5011688;28;20152;-87
2021/08/14 06:37:18;;;;;;;10.90;6.32;;;21.80;99.90;;;;;;4999607;28;20026;-87
2021/08/14 06:39:44;;;;;;;11.40;5.57;;;21.90;99.90;;;;;;5012296;28;20038;-87
2021/08/14 06:42:09;;;;;;;10.30;6.03;;;21.90;99.90;;;;;;4997344;28;20057;-87
2021/08/14 06:44:35;;;;;;;12.43;6.32;;;21.90;99.90;;;;;;5001345;28;20021;-87
2021/08/14 06:47:02;;;;;;;9.82;6.28;;;22.00;99.90;;;;;;4993784;28;20517;-86
2021/08/14 06:49:28;;;;;;;9.10;5.65;;;22.00;99.90;;;;;;4993059;28;20026;-85
2021/08/14 06:51:54;;;;;;;10.82;5.78;;;22.10;99.90;;;;;;4997351;28;20034;-85
2021/08/14 06:54:20;;;;;;;8.18;6.15;;;22.20;99.90;;;;;;5014512;28;20053;-85
2021/08/14 06:56:46;;;;;;;11.57;6.05;;;22.20;99.90;;;;;;4996395;28;20626;-85
2021/08/14 06:59:13;;;;;;;9.27;6.15;;;22.20;99.90;;;;;;4994133;28;20037;-85
2021/08/14 07:01:38;;;;;;;12.52;6.20;;;21.90;99.90;;;;;;5011133;28;20461;-85
2021/08/14 07:04:04;;;;;;;10.38;6.00;;;21.90;99.90;;;;;;5001539;28;20509;-85
2021/08/14 07:06:31;;;;;;;11.05;6.55;;;21.80;99.90;;;;;;4998153;28;20113;-85
2021/08/14 07:08:58;;;;;;;11.23;6.47;;;21.80;99.90;;;;;;4999905;28;20562;-85
2021/08/14 07:11:23;;;;;;;11.35;6.38;;;21.60;99.90;;;;;;4999621;28;20038;-85
2021/08/14 07:13:50;;;;;;;12.18;7.07;;;21.60;99.90;;;;;;5008107;28;20032;-85
2021/08/14 07:16:16;;;;;;;11.73;6.93;;;21.90;99.90;;;;;;5022728;23;20061;-84
2021/08/14 07:18:42;;;;;;;9.18;6.15;;;21.90;99.90;;;;;;5032493;28;20024;-84
2021/08/14 07:21:08;;;;;;;9.48;6.20;;;22.10;99.90;;;;;;5033358;28;20049;-84
2021/08/14 07:23:34;;;;;;;11.85;6.65;;;22.40;99.90;;;;;;5032533;28;20034;-84
2021/08/14 07:25:59;;;;;;;10.60;6.20;;;22.60;99.90;;;;;;5031989;28;20450;-85
2021/08/14 07:28:26;;;;;;;9.57;6.47;;;22.80;99.90;;;;;;5012474;28;20052;-85
2021/08/14 07:30:52;;;;;;;10.88;7.13;;;22.90;99.90;;;;;;5011560;28;20386;-85
2021/08/14 07:33:18;;;;;;;11.63;6.38;;;23.10;99.90;;;;;;5012770;28;20456;-85
2021/08/14 07:35:44;;;;;;;13.10;6.30;;;23.30;99.90;;;;;;5031965;28;20037;-85
2021/08/14 07:38:12;;;;;;;10.18;6.53;;;23.40;99.90;;;;;;5028078;28;20131;-86
2021/08/14 07:40:40;;;;;;;10.70;6.60;;;23.60;99.90;;;;;;5031031;28;20029;-90
2021/08/14 07:43:08;;;;;;;12.57;6.95;;;23.80;99.90;;;;;;5015822;28;20041;-88
2021/08/14 07:45:35;;;;;;;10.95;6.75;;;23.90;99.90;;;;;;5027465;28;20029;-87
2021/08/14 07:48:06;;;;;;;10.05;6.57;;;24.10;99.90;;;;;;5019047;28;20033;-87
2021/08/14 07:50:33;;;;;;;9.93;6.97;;;24.30;99.90;;;;;;5038885;28;20006;-88
2021/08/14 07:53:00;;;;;;;13.10;7.03;;;24.30;99.90;;;;;;5032773;28;20037;-88
2021/08/14 07:55:27;;;;;;;12.73;7.20;;;24.30;99.90;;;;;;5012393;28;20028;-88
2021/08/14 07:57:53;;;;;;;9.73;5.80;;;24.40;99.90;;;;;;5029923;28;20017;-88
2021/08/14 08:00:23;;;;;;;11.40;6.32;;;24.50;99.90;;;;;;5007818;28;20076;-87
2021/08/14 08:02:53;;;;;;;11.85;6.35;;;24.70;99.90;;;;;;5010206;28;20033;-90
2021/08/14 08:05:21;;;;;;;13.23;6.20;;;24.80;99.90;;;;;;5008119;28;20119;-87
2021/08/14 08:07:47;;;;;;;10.65;6.43;;;24.90;99.90;;;;;;5024997;28;20049;-87
2021/08/14 08:10:18;;;;;;;10.70;6.00;;;24.90;99.90;;;;;;5010676;28;20588;-89
2021/08/14 08:12:44;;;;;;;11.88;5.90;;;25.00;99.90;;;;;;5010974;28;20429;-88
2021/08/14 08:15:11;;;;;;;13.15;5.63;;;25.20;99.90;;;;;;5029057;28;20044;-85
2021/08/14 08:17:38;;;;;;;10.90;6.00;;;25.20;99.90;;;;;;5008014;28;20493;-85
2021/08/14 08:20:05;;;;;;;9.85;5.65;;;25.30;99.90;;;;;;5027867;28;20057;-84
2021/08/14 08:22:31;;;;;;;10.38;6.00;;;25.50;99.90;;;;;;5009701;28;20029;-85
2021/08/14 08:24:57;;;;;;;7.70;5.47;;;25.40;99.90;;;;;;5027184;28;20058;-85
2021/08/14 08:27:23;;;;;;;9.65;5.05;;;25.40;99.90;;;;;;5009770;28;20041;-85
2021/08/14 08:29:49;;;;;;;11.05;6.15;;;25.60;99.90;;;;;;5010670;28;20394;-85
2021/08/14 08:32:15;;;;;;;15.98;7.43;;;25.60;99.90;;;;;;5027830;28;20095;-85
2021/08/14 08:34:41;;;;;;;12.05;5.50;;;25.70;99.90;;;;;;5005655;28;20026;-85
2021/08/14 08:37:07;;;;;;;8.73;5.55;;;25.70;99.90;;;;;;5022741;28;20033;-85
2021/08/14 08:39:34;;;;;;;10.57;5.50;;;25.80;99.90;;;;;;5002837;28;20021;-86
2021/08/14 08:42:00;;;;;;;9.45;5.38;;;26.00;99.90;;;;;;5026639;28;20022;-85
2021/08/14 08:44:26;;;;;;;11.40;5.35;;;26.10;99.90;;;;;;5028379;28;20021;-86
2021/08/14 08:46:51;;;;;;;9.23;5.25;;;26.20;99.90;;;;;;5009967;28;20018;-85
2021/08/14 08:49:19;;;;;;;12.07;5.70;;;26.40;99.90;;;;;;5026081;28;20105;-85
2021/08/14 08:51:47;;;;;;;10.80;5.57;;;26.50;99.90;;;;;;5027908;28;20398;-85
2021/08/14 08:54:14;;;;;;;9.68;5.30;;;26.50;99.90;;;;;;5011475;28;20033;-85
2021/08/14 08:56:41;;;;;;;9.15;5.00;;;26.70;99.90;;;;;;5021853;28;20024;-85
2021/08/14 08:59:11;;;;;;;9.85;4.75;;;26.60;99.90;;;;;;5006354;28;20117;-85
2021/08/14 09:01:40;;;;;;;9.20;4.70;;;26.60;99.30;;;;;;5005509;28;20025;-85
2021/08/14 09:04:38;;;;;;;12.05;5.75;;;26.70;99.60;;;;;;4992800;28;20486;-85
2021/08/14 09:07:04;;;;;;;7.47;3.53;;;26.50;98.60;;;;;;4979573;28;20072;-86
2021/08/14 09:09:33;;;;;;;5.95;3.55;;;26.50;97.40;;;;;;5025348;28;20058;-86
2021/08/14 09:12:03;;;;;;;5.72;3.72;;;26.70;96.70;;;;;;5007635;28;20033;-86
2021/08/14 09:14:49;;;;;;;7.97;4.38;;;27.10;96.80;;;;;;5010112;28;20120;-86
2021/08/14 09:17:15;;;;;;;6.50;3.83;;;27.40;96.50;;;;;;5011401;28;20041;-86
2021/08/14 09:19:40;;;;;;;8.27;4.18;;;27.60;96.50;;;;;;5007315;28;20034;-86
2021/08/14 09:22:19;;;;;;;6.18;3.90;;;27.70;96.00;;;;;;5029702;28;20033;-86
2021/08/14 09:24:46;;;;;;;8.55;4.68;;;28.00;96.10;;;;;;5011957;28;20013;-87
2021/08/14 09:27:15;;;;;;;7.78;5.05;;;28.00;96.10;;;;;;5012395;28;20025;-87
2021/08/14 09:29:42;;;;;;;9.93;4.57;;;28.00;96.50;;;;;;5027317;28;20029;-87
2021/08/14 09:32:10;;;;;;;8.55;4.20;;;28.10;96.70;;;;;;5009867;28;20390;-87
2021/08/14 09:34:41;;;;;;;6.93;4.57;;;28.30;97.30;;;;;;5010872;28;20076;-87
2021/08/14 09:37:09;;;;;;;8.95;4.40;;;28.60;97.30;;;;;;5020267;28;20037;-87
2021/08/14 09:40:00;;;;;;;8.40;4.43;;;28.80;96.70;;;;;;5007059;28;21780;-87
2021/08/14 09:42:26;;;;;;;8.70;4.10;;;28.90;96.40;;;;;;5031348;28;20035;-87
2021/08/14 09:45:15;;;;;;;9.65;4.35;;;29.00;95.80;;;;;;5031497;28;20124;-87
2021/08/14 09:47:42;;;;;;;9.80;4.55;;;29.20;95.40;;;;;;5026167;28;20010;-88
2021/08/14 09:50:08;;;;;;;7.70;4.43;;;29.20;95.70;;;;;;5013856;28;20087;-87
2021/08/14 09:52:35;;;;;;;7.25;4.70;;;28.90;95.00;;;;;;5033285;28;20457;-87
2021/08/14 09:55:00;;;;;;;7.40;4.00;;;28.90;95.00;;;;;;5032348;28;20107;-87
2021/08/14 09:57:26;;;;;;;8.40;4.47;;;28.90;95.20;;;;;;5012230;28;20524;-87
2021/08/14 09:59:53;;;;;;;8.95;4.53;;;29.10;95.40;;;;;;5014468;28;20021;-87
2021/08/14 10:02:24;;;;;;;9.27;4.68;;;29.20;94.60;;;;;;5036216;28;20494;-87
2021/08/14 10:04:51;;;;;;;8.02;4.72;;;29.30;94.50;;;;;;5014437;28;20036;-87
2021/08/14 10:07:17;;;;;;;9.82;4.13;;;29.60;94.00;;;;;;5031250;28;20542;-87
2021/08/14 10:09:45;;;;;;;8.02;4.60;;;29.60;93.40;;;;;;5011812;28;20025;-87
2021/08/14 10:12:12;;;;;;;7.22;4.43;;;29.50;93.70;;;;;;5030614;28;20018;-80
2021/08/14 10:14:40;;;;;;;11.32;5.30;;;29.50;93.50;;;;;;5039629;28;20053;-86
2021/08/14 10:17:06;;;;;;;9.60;4.85;;;29.70;93.80;;;;;;5022217;28;20160;-86
2021/08/14 10:19:32;;;;;;;6.45;4.25;;;29.80;92.90;;;;;;5021693;28;20092;-86
2021/08/14 10:21:59;;;;;;;7.90;4.82;;;29.80;93.00;;;;;;5042893;28;20044;-86
2021/08/14 10:24:25;;;;;;;7.97;4.40;;;29.80;92.80;;;;;;5041736;28;20108;-85
2021/08/14 10:27:10;;;;;;;9.38;4.60;;;30.00;93.20;;;;;;5043938;28;20017;-85
2021/08/14 10:30:00;;;;;;;12.02;4.30;;;29.90;92.90;;;;;;5034097;28;20053;-85
2021/08/14 10:32:31;;;;;;;8.68;4.60;;;29.70;93.20;;;;;;5037881;28;20025;-86
2021/08/14 10:35:12;;;;;;;8.95;4.47;;;29.70;93.20;;;;;;5043253;28;20025;-84
2021/08/14 10:37:40;;;;;;;7.32;4.55;;;29.80;92.80;;;;;;5021374;28;20034;-86
2021/08/14 10:40:08;;;;;;;8.40;4.47;;;29.80;92.80;;;;;;5025346;28;20033;-85
2021/08/14 10:42:58;;;;;;;8.32;4.63;;;30.10;93.00;;;;;;5044865;28;21067;-83
2021/08/14 10:45:32;;;;;;;7.47;4.80;;;30.50;92.20;;;;;;5018123;28;20089;-83
2021/08/14 10:48:03;;;;;;;10.35;4.60;;;30.90;92.10;;;;;;5042440;28;20060;-85
2021/08/14 10:50:32;;;;;;;8.38;4.10;;;30.80;91.60;;;;;;5017431;28;20025;-85
2021/08/14 10:53:13;;;;;;;7.93;4.10;;;31.00;92.00;;;;;;5045147;28;20021;-87
2021/08/14 10:55:47;;;;;;;8.23;4.45;;;31.20;91.50;;;;;;5040695;28;20063;-86
2021/08/14 10:58:29;;;;;;;10.40;4.53;;;31.50;91.60;;;;;;5021581;28;20526;-86
2021/08/14 11:01:03;;;;;;;7.43;4.13;;;31.60;90.90;;;;;;5036123;28;20088;-85
2021/08/14 11:03:36;;;;;;;8.38;4.05;;;31.70;90.70;;;;;;5040862;28;20029;-85
2021/08/14 11:06:27;;;;;;;7.25;4.50;;;31.90;90.50;;;;;;5014145;28;20029;-86
2021/08/14 11:09:17;;;;;;;7.90;4.55;;;31.80;90.20;;;;;;5040053;28;20022;-85
2021/08/14 11:11:56;;;;;;;8.13;4.60;;;31.60;89.30;;;;;;5024987;28;20052;-85
2021/08/14 11:14:38;;;;;;;9.23;4.35;;;31.60;89.10;;;;;;5020109;28;20037;-86
2021/08/14 11:17:03;;;;;;;8.02;4.47;;;31.70;89.10;;;;;;5041209;28;20029;-85
2021/08/14 11:19:50;;;;;;;6.07;4.20;;;31.90;89.20;;;;;;5014816;28;20032;-85
2021/08/14 11:22:29;;;;;;;9.60;4.10;;;32.30;90.20;;;;;;5038395;28;20024;-86
2021/08/14 11:24:56;;;;;;;8.68;4.10;;;32.70;89.50;;;;;;5038477;28;20096;-83
2021/08/14 11:27:25;;;;;;;8.35;4.65;;;32.80;89.40;;;;;;5044343;28;20037;-84
2021/08/14 11:30:01;;;;;;;9.77;4.05;;;33.00;87.40;;;;;;5039502;28;20552;-83
2021/08/14 11:32:28;;;;;;;8.82;4.30;;;33.00;86.30;;;;;;5050993;28;20063;-83
2021/08/14 11:34:55;;;;;;;7.35;4.50;;;33.00;87.80;;;;;;5020276;28;20461;-84
2021/08/14 11:37:21;;;;;;;6.38;4.18;;;33.10;85.70;;;;;;5032853;28;20030;-83
2021/08/14 11:39:53;;;;;;;7.35;4.43;;;33.50;86.60;;;;;;5032637;28;20064;-82
2021/08/14 11:42:19;;;;;;;7.18;4.45;;;33.10;83.30;;;;;;5027533;28;20053;-82
2021/08/14 11:44:54;;;;;;;8.32;4.22;;;32.90;84.60;;;;;;5033713;28;20057;-81
2021/08/14 11:47:33;;;;;;;8.02;4.20;;;32.60;83.80;;;;;;5030229;28;20466;-83
2021/08/14 11:50:01;;;;;;;9.93;4.18;;;32.00;85.50;;;;;;5026013;28;20038;-82
2021/08/14 11:52:28;;;;;;;8.18;5.18;;;31.60;86.50;;;;;;5013810;28;20052;-81
2021/08/14 11:55:08;;;;;;;9.43;4.80;;;31.20;87.60;;;;;;5026986;28;20120;-82
2021/08/14 11:57:39;;;;;;;7.88;4.65;;;30.70;88.60;;;;;;5009438;28;20075;-82
2021/08/14 12:00:22;;;;;;;6.15;4.07;;;30.50;90.00;;;;;;5010434;28;20041;-83
2021/08/14 12:03:01;;;;;;;6.57;4.90;;;30.30;89.40;;;;;;5036443;28;20053;-82
2021/08/14 12:05:27;;;;;;;7.13;4.70;;;30.10;90.00;;;;;;5009839;28;20026;-83
2021/08/14 12:07:53;;;;;;;10.07;4.60;;;30.10;90.10;;;;;;5020322;28;20053;-83
2021/08/14 12:10:22;;;;;;;6.78;4.63;;;30.30;89.90;;;;;;5037923;28;20098;-82
2021/08/14 12:13:03;;;;;;;9.02;4.78;;;30.20;90.10;;;;;;5043184;28;20468;-83
2021/08/14 12:15:40;;;;;;;8.50;4.10;;;30.60;90.20;;;;;;5041710;28;20037;-82
2021/08/14 12:18:06;;;;;;;7.05;4.60;;;31.40;89.10;;;;;;5037751;28;20302;-84
2021/08/14 12:20:34;;;;;;;6.45;4.20;;;31.70;87.10;;;;;;5023480;28;20029;-83
2021/08/14 12:23:23;;;;;;;8.63;4.10;;;31.80;88.50;;;;;;5024555;28;20026;-83
2021/08/14 12:25:57;;;;;;;8.30;4.60;;;32.30;84.70;;;;;;5043366;28;20025;-82
2021/08/14 12:28:32;;;;;;;6.00;4.00;;;32.70;86.50;;;;;;5024744;28;20040;-84
2021/08/14 12:31:00;;;;;;;7.13;3.80;;;33.10;84.20;;;;;;5043135;28;20168;-83
2021/08/14 12:33:30;;;;;;;9.88;4.53;;;33.30;82.80;;;;;;5037180;28;20452;-83
2021/08/14 12:36:02;;;;;;;7.10;3.97;;;33.70;82.80;;;;;;5022825;28;20032;-83
2021/08/14 12:38:29;;;;;;;10.02;4.63;;;34.00;82.50;;;;;;5041095;28;20048;-84
2021/08/14 12:40:55;;;;;;;6.97;4.10;;;34.20;81.30;;;;;;5020902;28;20026;-84
2021/08/14 12:43:22;;;;;;;7.97;4.22;;;34.10;80.20;;;;;;5021794;28;20025;-82
2021/08/14 12:45:48;;;;;;;6.75;4.50;;;34.10;80.00;;;;;;5021838;28;20037;-84